createdAt,value
2022-12-18T00:00:12.112Z,-3.70
2022-12-18T00:02:41.780Z,-4.00
2022-12-18T00:05:10.587Z,-4.00
2022-12-18T00:07:39.291Z,-3.80
2022-12-18T00:10:09.141Z,-3.70
2022-12-18T00:12:37.317Z,-3.70
2022-12-18T00:15:07.204Z,-3.90
2022-12-18T00:17:35.402Z,-3.80
2022-12-18T00:20:05.627Z,-3.70
2022-12-18T00:22:33.852Z,-3.50
2022-12-18T00:25:02.137Z,-3.60
2022-12-18T00:27:30.329Z,-3.60
2022-12-18T00:29:58.520Z,-3.40
2022-12-18T00:32:26.677Z,-3.50
2022-12-18T00:34:54.861Z,-3.60
2022-12-18T00:37:24.395Z,-3.60
2022-12-18T00:39:52.629Z,-3.50
2022-12-18T00:42:38.426Z,-3.60
2022-12-18T00:45:12.369Z,-3.50
2022-12-18T00:47:41.698Z,-3.60
2022-12-18T00:50:11.493Z,-3.60
2022-12-18T00:52:44.586Z,-3.50
2022-12-18T00:55:13.129Z,-3.40
2022-12-18T00:57:42.077Z,-3.60
2022-12-18T01:00:15.705Z,-3.60
2022-12-18T01:02:44.505Z,-3.40
2022-12-18T01:05:15.066Z,-3.50
2022-12-18T01:07:44.612Z,-3.50
2022-12-18T01:10:15.109Z,-3.50
2022-12-18T01:12:43.641Z,-3.40
2022-12-18T01:15:15.503Z,-3.40
2022-12-18T01:17:43.785Z,-3.40
2022-12-18T01:20:14.731Z,-3.60
2022-12-18T01:22:44.292Z,-3.40
2022-12-18T01:25:12.656Z,-3.40
2022-12-18T01:27:40.881Z,-3.70
2022-12-18T01:30:10.491Z,-3.50
2022-12-18T01:32:39.397Z,-3.90
2022-12-18T01:35:09.503Z,-3.80
2022-12-18T01:37:37.798Z,-3.70
2022-12-18T01:40:09.798Z,-3.80
2022-12-18T01:42:38.220Z,-3.70
2022-12-18T01:45:24.557Z,-3.60
2022-12-18T01:47:55.663Z,-3.60
2022-12-18T01:50:30.608Z,-3.70
2022-12-18T01:53:07.680Z,-3.80
2022-12-18T01:55:42.946Z,-3.70
2022-12-18T01:58:11.371Z,-3.90
2022-12-18T02:00:39.667Z,-3.60
2022-12-18T02:03:08.027Z,-3.60
2022-12-18T02:05:48.126Z,-3.60
2022-12-18T02:08:24.080Z,-3.60
2022-12-18T02:11:05.428Z,-3.80
2022-12-18T02:13:47.420Z,-3.80
2022-12-18T02:16:28.184Z,-4.00
2022-12-18T02:19:01.728Z,-4.10
2022-12-18T02:21:42.797Z,-4.00
2022-12-18T02:24:31.461Z,-3.70
2022-12-18T02:27:05.236Z,-3.60
2022-12-18T02:29:40.984Z,-3.50
2022-12-18T02:32:16.792Z,-3.60
2022-12-18T02:34:48.206Z,-3.50
2022-12-18T02:37:21.143Z,-3.90
2022-12-18T02:39:51.921Z,-3.80
2022-12-18T02:42:21.902Z,-4.00
2022-12-18T02:44:52.108Z,-4.10
2022-12-18T02:47:24.440Z,-4.10
2022-12-18T02:50:07.320Z,-4.00
2022-12-18T02:52:44.192Z,-4.10
2022-12-18T02:55:33.614Z,-3.60
2022-12-18T02:58:14.228Z,-3.50
2022-12-18T03:00:55.044Z,-3.50
2022-12-18T03:03:32.257Z,-3.70
2022-12-18T03:06:08.661Z,-4.00
2022-12-18T03:08:43.105Z,-3.80
2022-12-18T03:11:14.698Z,-3.80
2022-12-18T03:13:51.323Z,-3.70
2022-12-18T03:16:26.211Z,-4.10
2022-12-18T03:18:59.880Z,-4.10
2022-12-18T03:21:36.875Z,-4.10
2022-12-18T03:24:11.506Z,-4.20
2022-12-18T03:26:45.824Z,-3.70
2022-12-18T03:29:23.426Z,-3.70
2022-12-18T03:31:58.684Z,-3.90
2022-12-18T03:34:34.503Z,-3.90
2022-12-18T03:37:06.716Z,-4.10
2022-12-18T03:39:35.590Z,-3.80
2022-12-18T03:42:09.370Z,-3.90
2022-12-18T03:44:49.408Z,-4.10
2022-12-18T03:47:25.792Z,-4.10
2022-12-18T03:50:10.999Z,-4.20
2022-12-18T03:52:51.625Z,-4.20
2022-12-18T03:55:23.360Z,-4.10
2022-12-18T03:57:55.221Z,-4.20
2022-12-18T04:00:24.988Z,-4.10
2022-12-18T04:02:57.769Z,-4.40
2022-12-18T04:05:29.252Z,-4.20
2022-12-18T04:07:58.888Z,-4.20
2022-12-18T04:10:27.075Z,-4.10
2022-12-18T04:12:58.334Z,-4.00
2022-12-18T04:15:28.027Z,-4.10
2022-12-18T04:17:56.259Z,-4.10
2022-12-18T04:20:24.444Z,-3.80
2022-12-18T04:22:52.629Z,-4.00
2022-12-18T04:25:20.935Z,-4.10
2022-12-18T04:27:49.170Z,-4.00
2022-12-18T04:30:17.405Z,-4.00
2022-12-18T04:32:52.034Z,-4.10
2022-12-18T04:35:20.625Z,-4.30
2022-12-18T04:37:48.800Z,-4.20
2022-12-18T04:40:17.164Z,-4.50
2022-12-18T04:42:45.440Z,-4.20
2022-12-18T04:45:13.595Z,-4.30
2022-12-18T04:47:41.852Z,-4.30
2022-12-18T04:50:11.976Z,-4.10
2022-12-18T04:52:40.149Z,-4.10
2022-12-18T04:55:09.301Z,-4.10
2022-12-18T04:57:37.584Z,-4.40
2022-12-18T05:00:07.437Z,-4.60
2022-12-18T05:02:35.815Z,-4.30
2022-12-18T05:05:04.620Z,-3.70
2022-12-18T05:07:34.256Z,-4.20
2022-12-18T05:10:02.466Z,-4.20
2022-12-18T05:12:30.620Z,-4.50
2022-12-18T05:14:58.823Z,-4.40
2022-12-18T05:17:26.994Z,-4.40
2022-12-18T05:19:55.131Z,-4.60
2022-12-18T05:22:23.251Z,-4.20
2022-12-18T05:24:52.719Z,-4.40
2022-12-18T05:27:21.726Z,-4.00
2022-12-18T05:29:49.868Z,-4.00
2022-12-18T05:32:17.977Z,-4.00
2022-12-18T05:34:46.159Z,-4.20
2022-12-18T05:37:14.845Z,-4.40
2022-12-18T05:39:42.964Z,-4.40
2022-12-18T05:42:12.441Z,-4.20
2022-12-18T05:44:40.607Z,-4.30
2022-12-18T05:47:08.968Z,-4.40
2022-12-18T05:49:37.214Z,-4.50
2022-12-18T05:52:05.639Z,-4.20
2022-12-18T05:54:34.071Z,-4.10
2022-12-18T05:57:02.328Z,-4.40
2022-12-18T05:59:31.936Z,-4.00
2022-12-18T06:02:00.210Z,-4.20
2022-12-18T06:04:29.688Z,-4.20
2022-12-18T06:06:57.905Z,-4.10
2022-12-18T06:09:26.302Z,-3.90
2022-12-18T06:11:54.829Z,-4.10
2022-12-18T06:14:23.034Z,-4.30
2022-12-18T06:16:54.367Z,-4.30
2022-12-18T06:19:22.750Z,-4.30
2022-12-18T06:21:52.192Z,-4.30
2022-12-18T06:24:20.345Z,-4.10
2022-12-18T06:26:48.592Z,-4.20
2022-12-18T06:29:16.788Z,-4.30
2022-12-18T06:31:45.063Z,-4.30
2022-12-18T06:34:14.616Z,-3.80
2022-12-18T06:36:42.765Z,-4.20
2022-12-18T06:39:10.985Z,-4.20
2022-12-18T06:41:39.239Z,-4.00
2022-12-18T06:44:08.270Z,-4.00
2022-12-18T06:46:36.502Z,-4.00
2022-12-18T06:49:04.742Z,-4.10
2022-12-18T06:51:34.302Z,-4.00
2022-12-18T06:54:02.951Z,-4.10
2022-12-18T06:56:31.421Z,-4.10
2022-12-18T06:58:59.588Z,-4.20
2022-12-18T07:01:27.895Z,-4.00
2022-12-18T07:03:57.290Z,-4.00
2022-12-18T07:06:27.887Z,-4.20
2022-12-18T07:08:57.895Z,-3.90
2022-12-18T07:11:26.496Z,-3.80
2022-12-18T07:13:55.598Z,-3.90
2022-12-18T07:16:25.915Z,-4.10
2022-12-18T07:18:54.837Z,-3.90
2022-12-18T07:21:24.128Z,-4.10
2022-12-18T07:23:52.917Z,-4.30
2022-12-18T07:26:24.127Z,-4.20
2022-12-18T07:28:55.545Z,-4.10
2022-12-18T07:31:24.165Z,-3.90
2022-12-18T07:33:53.451Z,-3.90
2022-12-18T07:36:25.316Z,-3.70
2022-12-18T07:38:54.148Z,-3.70
2022-12-18T07:41:24.057Z,-3.70
2022-12-18T07:43:52.243Z,-3.90
2022-12-18T07:46:21.128Z,-3.90
2022-12-18T07:48:50.338Z,-3.80
2022-12-18T07:51:20.307Z,-4.10
2022-12-18T07:53:49.574Z,-4.10
2022-12-18T07:56:28.205Z,-3.70
2022-12-18T07:58:59.494Z,-3.70
2022-12-18T08:01:28.299Z,-3.40
2022-12-18T08:03:59.329Z,-3.70
2022-12-18T08:06:27.557Z,-3.90
2022-12-18T08:08:57.354Z,-4.10
2022-12-18T08:11:29.678Z,-4.20
2022-12-18T08:13:58.297Z,-4.10
2022-12-18T08:16:26.835Z,-4.00
2022-12-18T08:18:55.903Z,-4.00
2022-12-18T08:21:27.331Z,-3.90
2022-12-18T08:23:57.665Z,-3.80
2022-12-18T08:26:30.223Z,-4.00
2022-12-18T08:29:01.210Z,-4.10
2022-12-18T08:31:31.940Z,-4.00
2022-12-18T08:34:00.387Z,-4.00
2022-12-18T08:36:28.721Z,-4.10
2022-12-18T08:38:57.109Z,-4.00
2022-12-18T08:41:26.844Z,-3.90
2022-12-18T08:44:12.366Z,-4.00
2022-12-18T08:46:43.916Z,-3.90
2022-12-18T08:49:13.791Z,-3.90
2022-12-18T08:51:42.517Z,-3.70
2022-12-18T08:54:14.466Z,-3.90
2022-12-18T08:56:44.269Z,-4.10
2022-12-18T08:59:19.173Z,-4.10
2022-12-18T09:01:49.358Z,-4.20
2022-12-18T09:04:18.370Z,-4.00
2022-12-18T09:06:46.601Z,-4.00
2022-12-18T09:09:15.121Z,-4.10
2022-12-18T09:11:44.745Z,-3.40
2022-12-18T09:14:13.053Z,-4.10
2022-12-18T09:16:41.450Z,-4.00
2022-12-18T09:19:11.078Z,-3.80
2022-12-18T09:21:47.754Z,-3.90
2022-12-18T09:24:18.492Z,-3.70
2022-12-18T09:26:48.007Z,-3.80
2022-12-18T09:29:18.858Z,-3.70
2022-12-18T09:31:47.380Z,-3.80
2022-12-18T09:34:15.755Z,-3.90
2022-12-18T09:36:44.007Z,-3.90
2022-12-18T09:39:12.152Z,-3.90
2022-12-18T09:41:54.733Z,-3.90
2022-12-18T09:44:29.057Z,-3.90
2022-12-18T09:47:18.073Z,-4.10
2022-12-18T09:49:49.188Z,-4.00
2022-12-18T09:52:24.358Z,-4.00
2022-12-18T09:55:00.207Z,-4.00
2022-12-18T09:57:35.298Z,-3.20
2022-12-18T10:00:17.336Z,-3.60
2022-12-18T10:02:45.742Z,-3.70
2022-12-18T10:05:18.058Z,-3.70
2022-12-18T10:07:59.502Z,-4.00
2022-12-18T10:10:41.814Z,-4.20
2022-12-18T10:13:27.147Z,-4.10
2022-12-18T10:16:18.114Z,-4.00
2022-12-18T10:19:25.850Z,-3.90
2022-12-18T10:22:05.160Z,-3.60
2022-12-18T10:24:44.318Z,-3.90
2022-12-18T10:27:18.067Z,-3.70
2022-12-18T10:29:48.817Z,-3.70
2022-12-18T10:32:20.628Z,-3.80
2022-12-18T10:34:55.327Z,-3.70
2022-12-18T10:37:31.131Z,-3.80
2022-12-18T10:40:21.955Z,-3.80
2022-12-18T10:43:07.472Z,-3.90
2022-12-18T10:45:37.020Z,-3.80
2022-12-18T10:48:06.622Z,-3.90
2022-12-18T10:51:09.741Z,-3.80
2022-12-18T10:53:30.163Z,-3.80
2022-12-18T10:56:05.208Z,-3.90
2022-12-18T10:58:35.983Z,-3.80
2022-12-18T11:01:11.032Z,-3.80
2022-12-18T11:03:42.287Z,-4.00
2022-12-18T11:06:13.739Z,-4.00
2022-12-18T11:08:45.349Z,-4.00
2022-12-18T11:11:24.040Z,-3.90
2022-12-18T11:14:05.316Z,-4.00
2022-12-18T11:17:03.041Z,-3.80
2022-12-18T11:19:37.669Z,-3.80
2022-12-18T11:22:23.144Z,-3.80
2022-12-18T11:27:54.011Z,-3.90
2022-12-18T11:30:29.260Z,-3.90
2022-12-18T11:33:07.243Z,-3.80
2022-12-18T11:35:46.181Z,-3.60
2022-12-18T11:38:25.081Z,-3.80
2022-12-18T11:41:01.118Z,-3.10
2022-12-18T11:43:36.704Z,-3.90
2022-12-18T11:46:14.776Z,-3.60
2022-12-18T11:48:54.267Z,-3.70
2022-12-18T11:51:43.826Z,-3.70
2022-12-18T11:54:16.738Z,-3.80
2022-12-18T11:56:53.089Z,-3.90
2022-12-18T11:59:38.114Z,-3.90
2022-12-18T12:02:31.896Z,-3.90
2022-12-18T12:05:27.131Z,-4.10
2022-12-18T12:08:05.960Z,-3.60
2022-12-18T12:10:50.523Z,-3.50
2022-12-18T12:13:41.700Z,-3.70
2022-12-18T12:16:20.280Z,-3.90
2022-12-18T12:19:21.301Z,-3.90
2022-12-18T12:22:06.055Z,-3.80
2022-12-18T12:24:54.559Z,-3.90
2022-12-18T12:27:37.961Z,-3.80
2022-12-18T12:30:11.540Z,-3.70
2022-12-18T12:33:01.224Z,-3.50
2022-12-18T12:35:46.452Z,-3.50
2022-12-18T12:38:24.878Z,-3.40
2022-12-18T12:41:03.163Z,-3.60
2022-12-18T12:43:44.536Z,-3.80
2022-12-18T12:46:22.367Z,-3.50
2022-12-18T12:48:55.433Z,-3.50
2022-12-18T12:51:27.071Z,-3.60
2022-12-18T12:54:00.364Z,-3.60
2022-12-18T12:56:47.181Z,-3.40
2022-12-18T12:59:27.165Z,-3.50
2022-12-18T13:02:05.646Z,-3.40
2022-12-18T13:04:44.523Z,-3.40
2022-12-18T13:07:22.167Z,-3.50
2022-12-18T13:10:28.677Z,-3.40
2022-12-18T13:12:58.692Z,-3.50
2022-12-18T13:15:40.224Z,-3.50
2022-12-18T13:18:23.551Z,-3.50
2022-12-18T13:21:07.864Z,-3.60
2022-12-18T13:23:42.170Z,-3.60
2022-12-18T13:26:36.805Z,-3.00
2022-12-18T13:29:07.030Z,-3.50
2022-12-18T13:32:03.166Z,-3.50
2022-12-18T13:34:33.531Z,-3.50
2022-12-18T13:37:41.773Z,-3.50
2022-12-18T13:40:57.268Z,-3.50
2022-12-18T13:43:44.900Z,-3.20
2022-12-18T13:46:24.059Z,-3.40
2022-12-18T13:49:01.998Z,-3.50
2022-12-18T13:51:33.893Z,-3.60
2022-12-18T13:54:08.076Z,-3.60
2022-12-18T13:56:36.556Z,-3.60
2022-12-18T13:59:25.707Z,-3.60
2022-12-18T14:01:57.585Z,-3.70
2022-12-18T14:04:31.734Z,-3.70
2022-12-18T14:07:07.334Z,-3.70
2022-12-18T14:09:42.155Z,-3.70
2022-12-18T14:12:37.197Z,-3.70
2022-12-18T14:15:22.289Z,-3.50
2022-12-18T14:17:51.836Z,-3.60
2022-12-18T14:20:20.453Z,-3.70
2022-12-18T14:22:51.107Z,-3.70
2022-12-18T14:25:23.574Z,-3.70
2022-12-18T14:27:55.504Z,-3.80
2022-12-18T14:30:34.256Z,-3.80
2022-12-18T14:33:06.089Z,-3.70
2022-12-18T14:35:36.496Z,-3.60
2022-12-18T14:38:24.872Z,-3.60
2022-12-18T14:41:01.583Z,-3.60
2022-12-18T14:43:32.048Z,-3.80
2022-12-18T14:46:04.024Z,-3.80
2022-12-18T14:48:41.024Z,-3.70
2022-12-18T14:51:19.645Z,-3.80
2022-12-18T14:53:54.929Z,-3.80
2022-12-18T14:56:27.114Z,-3.80
2022-12-18T14:58:59.991Z,-4.00
2022-12-18T15:01:34.275Z,-3.90
2022-12-18T15:04:05.881Z,-4.00
2022-12-18T15:06:37.443Z,-3.90
2022-12-18T15:09:24.393Z,-3.90
2022-12-18T15:11:59.824Z,-3.80
2022-12-18T15:14:40.628Z,-3.90
2022-12-18T15:17:21.231Z,-4.00
2022-12-18T15:19:54.389Z,-4.10
2022-12-18T15:22:28.150Z,-4.10
2022-12-18T15:24:58.027Z,-4.00
2022-12-18T15:27:36.557Z,-4.00
2022-12-18T15:30:24.351Z,-4.10
2022-12-18T15:33:14.982Z,-4.10
2022-12-18T15:35:46.933Z,-4.10
2022-12-18T15:38:15.739Z,-4.00
2022-12-18T15:40:44.221Z,-4.00
2022-12-18T15:43:30.090Z,-4.10
2022-12-18T15:45:58.357Z,-4.10
2022-12-18T15:48:28.084Z,-4.10
2022-12-18T15:50:59.774Z,-4.10
2022-12-18T15:53:33.099Z,-4.10
2022-12-18T15:56:18.870Z,-4.10
2022-12-18T15:58:47.009Z,-4.30
2022-12-18T16:01:16.078Z,-4.30
2022-12-18T16:03:45.919Z,-4.30
2022-12-18T16:06:14.530Z,-4.10
2022-12-18T16:08:42.842Z,-4.30
2022-12-18T16:11:38.802Z,-4.30
2022-12-18T16:14:19.686Z,-4.30
2022-12-18T16:16:50.486Z,-4.40
2022-12-18T16:19:20.409Z,-4.10
2022-12-18T16:21:49.735Z,-4.30
2022-12-18T16:24:20.350Z,-4.40
2022-12-18T16:26:48.846Z,-4.40
2022-12-18T16:29:17.180Z,-4.30
2022-12-18T16:31:45.571Z,-4.50
2022-12-18T16:34:24.481Z,-4.70
2022-12-18T16:37:04.937Z,-4.60
2022-12-18T16:39:35.157Z,-4.80
2022-12-18T16:42:06.000Z,-4.70
2022-12-18T16:44:34.659Z,-4.90
2022-12-18T16:47:04.287Z,-4.70
2022-12-18T16:49:34.681Z,-5.00
2022-12-18T16:52:06.474Z,-4.90
2022-12-18T16:54:35.100Z,-5.00
2022-12-18T16:57:05.178Z,-5.00
2022-12-18T16:59:36.259Z,-4.90
2022-12-18T17:02:07.827Z,-5.00
2022-12-18T17:04:38.065Z,-4.90
2022-12-18T17:07:06.289Z,-5.00
2022-12-18T17:09:34.603Z,-5.10
2022-12-18T17:12:04.497Z,-5.20
2022-12-18T17:14:34.744Z,-5.20
2022-12-18T17:19:54.089Z,-5.40
2022-12-18T17:22:24.136Z,-5.20
2022-12-18T17:24:52.330Z,-5.30
2022-12-18T17:27:20.509Z,-5.40
2022-12-18T17:29:49.236Z,-5.40
2022-12-18T17:32:18.184Z,-5.50
2022-12-18T17:34:46.567Z,-5.50
2022-12-18T17:37:16.624Z,-5.50
2022-12-18T17:39:44.924Z,-5.40
2022-12-18T17:42:15.328Z,-5.50
2022-12-18T17:44:45.080Z,-5.60
2022-12-18T17:47:13.918Z,-5.50
2022-12-18T17:49:42.266Z,-5.50
2022-12-18T17:52:11.233Z,-5.50
2022-12-18T17:54:43.775Z,-5.60
2022-12-18T17:57:12.226Z,-5.60
2022-12-18T17:59:40.477Z,-5.60
2022-12-18T18:02:11.940Z,-5.60
2022-12-18T18:04:40.864Z,-5.60
2022-12-18T18:07:09.545Z,-5.50
2022-12-18T18:09:37.951Z,-5.60
2022-12-18T18:12:25.650Z,-5.50
2022-12-18T18:14:54.127Z,-5.60
2022-12-18T18:17:22.690Z,-5.60
2022-12-18T18:19:51.200Z,-5.50
2022-12-18T18:22:20.066Z,-5.60
2022-12-18T18:24:48.518Z,-5.50
2022-12-18T18:27:18.146Z,-5.50
2022-12-18T18:29:46.376Z,-5.60
2022-12-18T18:32:14.499Z,-5.60
2022-12-18T18:34:42.797Z,-5.60
2022-12-18T18:37:11.840Z,-5.60
2022-12-18T18:39:40.122Z,-5.50
2022-12-18T18:42:08.419Z,-5.60
2022-12-18T18:44:38.351Z,-5.50
2022-12-18T18:47:09.492Z,-5.50
2022-12-18T18:49:37.907Z,-5.50
2022-12-18T18:52:07.504Z,-5.70
2022-12-18T18:54:35.709Z,-5.60
2022-12-18T18:57:20.336Z,-5.60
2022-12-18T18:59:50.400Z,-5.60
2022-12-18T19:02:18.915Z,-5.70
2022-12-18T19:04:47.455Z,-5.70
2022-12-18T19:07:29.543Z,-5.80
2022-12-18T19:10:04.573Z,-5.80
2022-12-18T19:12:52.545Z,-5.80
2022-12-18T19:15:22.251Z,-5.80
2022-12-18T19:17:50.845Z,-5.70
2022-12-18T19:20:19.360Z,-5.70
2022-12-18T19:22:54.647Z,-5.70
2022-12-18T19:25:39.993Z,-5.70
2022-12-18T19:28:12.792Z,-5.70
2022-12-18T19:30:59.425Z,-5.70
2022-12-18T19:33:45.189Z,-5.80
2022-12-18T19:36:19.446Z,-5.80
2022-12-18T19:38:49.164Z,-5.80
2022-12-18T19:41:19.868Z,-5.70
2022-12-18T19:43:49.801Z,-5.60
2022-12-18T19:46:22.228Z,-5.50
2022-12-18T19:48:51.320Z,-5.60
2022-12-18T19:51:23.419Z,-5.70
2022-12-18T19:53:58.094Z,-5.70
2022-12-18T19:56:30.512Z,-5.80
2022-12-18T19:58:59.405Z,-5.80
2022-12-18T20:01:32.886Z,-5.80
2022-12-18T20:04:01.805Z,-5.90
2022-12-18T20:06:34.184Z,-5.80
2022-12-18T20:09:06.479Z,-5.90
2022-12-18T20:11:41.262Z,-5.90
2022-12-18T20:14:10.555Z,-5.70
2022-12-18T20:16:40.799Z,-5.80
2022-12-18T20:19:10.803Z,-5.80
2022-12-18T20:21:39.182Z,-5.90
2022-12-18T20:24:09.214Z,-5.90
2022-12-18T20:26:37.529Z,-5.90
2022-12-18T20:29:05.787Z,-5.80
2022-12-18T20:31:34.179Z,-5.80
2022-12-18T20:34:06.025Z,-5.90
2022-12-18T20:36:36.261Z,-5.80
2022-12-18T20:39:06.438Z,-5.80
2022-12-18T20:41:38.425Z,-5.80
2022-12-18T20:44:17.749Z,-5.80
2022-12-18T20:46:53.356Z,-5.90
2022-12-18T20:49:23.777Z,-5.80
2022-12-18T20:51:53.319Z,-5.90
2022-12-18T20:54:22.245Z,-5.70
2022-12-18T20:56:50.947Z,-5.80
2022-12-18T20:59:19.741Z,-5.80
2022-12-18T21:01:49.496Z,-5.90
2022-12-18T21:04:19.159Z,-5.90
2022-12-18T21:06:53.342Z,-5.90
2022-12-18T21:09:26.072Z,-5.80
2022-12-18T21:12:13.964Z,-5.80
2022-12-18T21:14:43.588Z,-5.70
2022-12-18T21:17:12.273Z,-5.70
2022-12-18T21:19:40.583Z,-5.80
2022-12-18T21:22:11.909Z,-5.80
2022-12-18T21:24:40.103Z,-5.80
2022-12-18T21:27:08.284Z,-5.80
2022-12-18T21:29:40.215Z,-5.80
2022-12-18T21:32:09.202Z,-5.80
2022-12-18T21:34:38.212Z,-5.70
2022-12-18T21:37:06.436Z,-5.70
2022-12-18T21:39:36.126Z,-5.60
2022-12-18T21:42:22.352Z,-5.70
2022-12-18T21:44:51.059Z,-5.60
2022-12-18T21:47:22.201Z,-5.60
2022-12-18T21:49:53.126Z,-5.70
2022-12-18T21:52:28.609Z,-5.70
2022-12-18T21:55:09.132Z,-5.80
2022-12-18T21:57:39.760Z,-5.80
2022-12-18T22:00:19.055Z,-6.00
2022-12-18T22:03:17.190Z,-5.60
2022-12-18T22:05:37.095Z,-5.60
2022-12-18T22:08:06.839Z,-5.60
2022-12-18T22:10:37.083Z,-5.80
2022-12-18T22:13:05.936Z,-5.80
2022-12-18T22:15:34.734Z,-5.10
2022-12-18T22:18:03.243Z,-5.80
2022-12-18T22:20:31.448Z,-5.80
2022-12-18T22:23:05.760Z,-5.80
2022-12-18T22:25:39.220Z,-5.80
2022-12-18T22:28:26.203Z,-5.80
2022-12-18T22:30:59.602Z,-5.70
2022-12-18T22:33:28.862Z,-5.80
2022-12-18T22:35:57.210Z,-5.70
2022-12-18T22:38:25.766Z,-5.80
2022-12-18T22:40:56.397Z,-5.80
2022-12-18T22:43:24.752Z,-5.80
2022-12-18T22:45:53.142Z,-5.80
2022-12-18T22:48:21.776Z,-5.80
2022-12-18T22:50:50.307Z,-5.90
2022-12-18T22:53:21.854Z,-5.80
2022-12-18T22:55:50.069Z,-5.80
2022-12-18T22:58:19.918Z,-5.70
2022-12-18T23:00:48.055Z,-5.70
2022-12-18T23:03:16.262Z,-5.80
2022-12-18T23:05:44.925Z,-5.80
2022-12-18T23:08:14.511Z,-5.80
2022-12-18T23:10:42.686Z,-5.90
2022-12-18T23:13:10.882Z,-5.90
2022-12-18T23:15:44.018Z,-5.80
2022-12-18T23:18:12.562Z,-5.80
2022-12-18T23:20:40.708Z,-5.80
2022-12-18T23:23:09.815Z,-5.90
2022-12-18T23:25:38.136Z,-5.90
2022-12-18T23:28:06.819Z,-5.70
2022-12-18T23:30:35.742Z,-5.80
2022-12-18T23:33:05.388Z,-5.80
2022-12-18T23:35:33.769Z,-5.90
2022-12-18T23:38:01.923Z,-5.90
2022-12-18T23:40:30.883Z,-5.90
2022-12-18T23:43:01.013Z,-5.60
2022-12-18T23:45:29.457Z,-5.80
2022-12-18T23:47:57.628Z,-5.90
2022-12-18T23:50:29.266Z,-5.80
2022-12-18T23:53:04.778Z,-5.80
2022-12-18T23:55:39.299Z,-5.90
2022-12-18T23:58:08.862Z,-6.00
